Time;durP1;ratioP1;P1;durP2;ratioP2;P2;SDS_P1;SDS_P2;PMS_P1;PMS_P2;Temp;Humidity;BMP_temperature;BMP_pressure;BME280_temperature;BME280_humidity;BME280_pressure;Samples;Min_cycle;Max_cycle;Signal;HPM_P1;HPM_P2
2022/07/23 00:01:28;;;;;;;;;;;26.90;68.40;;;;;;5019528;28;20409;-91
2022/07/23 00:03:59;;;;;;;;;;;26.90;68.50;;;;;;5018600;28;19909;-93
2022/07/23 00:06:27;;;;;;;;;;;26.90;68.00;;;;;;5012985;28;19916;-93
2022/07/23 00:08:53;;;;;;;;;;;26.90;68.30;;;;;;5016954;28;19996;-92
2022/07/23 00:11:41;;;;;;;;;;;26.80;68.80;;;;;;5018346;28;19996;-93
2022/07/23 00:14:07;;;;;;;;;;;26.80;68.10;;;;;;5016332;28;19924;-93
2022/07/23 00:16:35;;;;;;;;;;;26.80;68.50;;;;;;5019630;28;19920;-93
2022/07/23 00:19:05;;;;;;;;;;;26.80;69.00;;;;;;5020091;28;19975;-89
2022/07/23 00:21:38;;;;;;;;;;;26.80;69.30;;;;;;5017409;28;19917;-93
2022/07/23 00:24:06;;;;;;;;;;;26.80;69.10;;;;;;5013026;28;19913;-92
2022/07/23 00:26:32;;;;;;;;;;;26.80;68.90;;;;;;5020088;28;20003;-91
2022/07/23 00:29:03;;;;;;;;;;;26.80;68.60;;;;;;5025407;28;19966;-89
2022/07/23 00:31:35;;;;;;;;;;;26.80;68.40;;;;;;5018274;28;19933;-90
2022/07/23 00:34:38;;;;;;;;;;;26.80;68.70;;;;;;5019120;28;20635;-90
2022/07/23 00:37:07;;;;;;;;;;;26.70;69.00;;;;;;5021951;28;19909;-90
2022/07/23 00:39:36;;;;;;;;;;;26.70;69.00;;;;;;5015307;28;20553;-93
2022/07/23 00:42:15;;;;;;;;;;;26.60;69.30;;;;;;5036807;28;20003;-93
2022/07/23 00:44:42;;;;;;;;;;;26.60;69.60;;;;;;5023553;28;19947;-92
2022/07/23 00:47:29;;;;;;;;;;;26.60;70.20;;;;;;5024120;28;19916;-93
2022/07/23 00:49:55;;;;;;;;;;;26.60;69.50;;;;;;5016351;28;19967;-93
2022/07/23 00:52:31;;;;;;;;;;;26.60;69.30;;;;;;5023568;28;19967;-92
2022/07/23 00:55:07;;;;;;;;;;;26.60;69.80;;;;;;5017029;28;20543;-92
2022/07/23 00:57:37;;;;;;;;;;;26.60;69.50;;;;;;5021046;28;19917;-92
2022/07/23 01:00:10;;;;;;;;;;;26.60;69.20;;;;;;5017283;28;19913;-92
2022/07/23 01:02:38;;;;;;;;;;;26.60;69.80;;;;;;5022279;28;19955;-92
2022/07/23 01:05:21;;;;;;;;;;;26.60;69.60;;;;;;5021758;28;19948;-93
2022/07/23 01:07:57;;;;;;;;;;;26.50;69.10;;;;;;5022122;28;20318;-93
2022/07/23 01:10:45;;;;;;;;;;;26.60;69.60;;;;;;5021111;28;19913;-93
2022/07/23 01:13:16;;;;;;;;;;;26.50;69.70;;;;;;5033382;28;19921;-93
2022/07/23 01:15:44;;;;;;;;;;;26.50;69.90;;;;;;5018078;28;20022;-92
2022/07/23 01:18:12;;;;;;;;;;;26.50;70.10;;;;;;5023124;28;19991;-93
2022/07/23 01:20:41;;;;;;;;;;;26.40;70.60;;;;;;5020262;28;19931;-93
2022/07/23 01:23:08;;;;;;;;;;;26.40;70.60;;;;;;5018896;28;19920;-93
2022/07/23 01:25:53;;;;;;;;;;;26.40;70.60;;;;;;5021264;28;19909;-93
2022/07/23 01:28:20;;;;;;;;;;;26.40;70.20;;;;;;5013998;28;19948;-94
2022/07/23 01:30:47;;;;;;;;;;;26.40;70.00;;;;;;5024509;28;20026;-93
2022/07/23 01:36:15;;;;;;;;;;;26.60;70.20;;;;;;5021770;28;20326;-92
2022/07/23 01:47:46;;;;;;;;;;;26.50;73.10;;;;;;5041693;28;19915;-91
2022/07/23 01:53:14;;;;;;;;;;;26.40;74.00;;;;;;5037247;28;19935;-91
2022/07/23 01:55:41;;;;;;;;;;;26.40;74.40;;;;;;5030827;28;19921;-92
2022/07/23 02:01:09;;;;;;;;;;;26.40;75.50;;;;;;5042582;28;19963;-92
2022/07/23 02:04:00;;;;;;;;;;;26.40;76.50;;;;;;5030110;28;20310;-92
2022/07/23 02:09:36;;;;;;;;;;;26.40;77.40;;;;;;5032575;28;19920;-93
2022/07/23 02:18:40;;;;;;;;;;;26.50;76.70;;;;;;5042189;28;20372;-92
2022/07/23 02:24:09;;;;;;;;;;;26.50;75.80;;;;;;5035152;28;19935;-92
2022/07/23 02:29:39;;;;;;;;;;;26.50;75.20;;;;;;5033269;28;19920;-92
2022/07/23 02:35:08;;;;;;;;;;;26.50;75.20;;;;;;5039721;28;19963;-90
2022/07/23 03:07:06;;;;;;;;;;;25.60;82.50;;;;;;4941545;28;19957;-92
2022/07/23 03:12:34;;;;;;;;;;;25.60;83.20;;;;;;4954984;29;19978;-89
2022/07/23 03:17:57;;;;;;;;;;;25.40;83.90;;;;;;5183450;23;19976;-91
2022/07/23 03:23:25;;;;;;;;;;;25.40;84.40;;;;;;4987160;28;19932;-91
2022/07/23 03:25:57;;;;;;;;;;;25.40;84.10;;;;;;4983989;28;20356;-92
2022/07/23 03:28:32;;;;;;;;;;;25.40;84.50;;;;;;4983296;28;19914;-91
2022/07/23 03:30:58;;;;;;;;;;;25.40;85.00;;;;;;4977218;28;20048;-92
2022/07/23 03:36:30;;;;;;;;;;;25.30;85.20;;;;;;4963497;28;19978;-92
2022/07/23 03:44:43;;;;;;;;;;;25.50;84.50;;;;;;4986087;28;20402;-91
2022/07/23 03:47:10;;;;;;;;;;;25.50;84.70;;;;;;4979096;28;19910;-89
2022/07/23 03:49:35;;;;;;;;;;;25.50;84.60;;;;;;4983715;28;19909;-93
2022/07/23 03:55:28;;;;;;;;;;;25.60;85.10;;;;;;4984684;28;20013;-92
2022/07/23 03:57:57;;;;;;;;;;;25.60;85.20;;;;;;4981208;28;19920;-93
2022/07/23 04:00:24;;;;;;;;;;;25.60;85.60;;;;;;4981744;28;20108;-92
2022/07/23 04:03:07;;;;;;;;;;;25.60;85.40;;;;;;4981800;28;20035;-92
2022/07/23 04:05:34;;;;;;;;;;;25.60;85.80;;;;;;4998458;28;19925;-92
2022/07/23 04:11:03;;;;;;;;;;;25.70;85.60;;;;;;4983961;28;19980;-92
2022/07/23 04:16:31;;;;;;;;;;;25.80;85.80;;;;;;4987131;28;19917;-92
2022/07/23 04:19:04;;;;;;;;;;;25.80;86.00;;;;;;4987340;28;19910;-92
2022/07/23 04:21:42;;;;;;;;;;;25.90;86.90;;;;;;4981580;28;19921;-92
2022/07/23 04:27:10;;;;;;;;;;;25.80;87.60;;;;;;4972809;28;20559;-92
2022/07/23 04:29:38;;;;;;;;;;;25.80;87.50;;;;;;4981433;28;19910;-90
2022/07/23 04:32:04;;;;;;;;;;;25.80;87.60;;;;;;4979455;28;19944;-92
2022/07/23 04:34:36;;;;;;;;;;;25.80;87.90;;;;;;4971362;28;19925;-92
2022/07/23 04:37:01;;;;;;;;;;;25.90;87.70;;;;;;4987103;28;19921;-92
2022/07/23 04:39:27;;;;;;;;;;;26.10;88.60;;;;;;4985408;28;19910;-93
2022/07/23 04:41:52;;;;;;;;;;;26.10;86.00;;;;;;4972918;28;19918;-93
2022/07/23 04:44:18;;;;;;;;;;;26.10;86.10;;;;;;4966803;28;20000;-92
2022/07/23 04:46:44;;;;;;;;;;;26.30;86.90;;;;;;4974747;28;19991;-92
2022/07/23 04:49:09;;;;;;;;;;;26.30;86.00;;;;;;4979120;28;19921;-92
2022/07/23 04:51:42;;;;;;;;;;;26.50;84.00;;;;;;4971285;28;19918;-92
2022/07/23 04:54:07;;;;;;;;;;;26.50;81.70;;;;;;4979175;28;19953;-92
2022/07/23 04:56:33;;;;;;;;;;;26.50;81.40;;;;;;4974675;28;19938;-93
2022/07/23 04:59:05;;;;;;;;;;;26.70;81.50;;;;;;4983204;28;19917;-94
2022/07/23 05:01:31;;;;;;;;;;;26.70;81.20;;;;;;4984764;28;19997;-92
2022/07/23 05:04:25;;;;;;;;;;;26.50;90.00;;;;;;4978883;28;19997;-93
2022/07/23 05:07:03;;;;;;;;;;;26.30;84.10;;;;;;4980852;28;20453;-95
2022/07/23 05:09:29;;;;;;;;;;;26.30;82.50;;;;;;4983233;28;19914;-96
2022/07/23 05:14:58;;;;;;;;;;;26.60;82.50;;;;;;4985405;28;19944;-95
2022/07/23 05:17:29;;;;;;;;;;;26.70;82.60;;;;;;4993111;28;20458;-85
2022/07/23 05:19:56;;;;;;;;;;;26.90;81.10;;;;;;4977535;28;19914;-77
2022/07/23 05:22:23;;;;;;;;;;;27.00;79.90;;;;;;4979184;28;20374;-76
2022/07/23 05:24:49;;;;;;;;;;;27.40;78.20;;;;;;4978667;28;19929;-77
2022/07/23 05:27:16;;;;;;;;;;;27.60;77.40;;;;;;4976326;28;20029;-76
2022/07/23 05:29:48;;;;;;;;;;;27.90;76.80;;;;;;4984826;28;19922;-77
2022/07/23 05:32:15;;;;;;;;;;;28.00;76.90;;;;;;4974568;28;19993;-77
2022/07/23 05:34:45;;;;;;;;;;;28.10;76.70;;;;;;4976185;28;20393;-77
2022/07/23 05:37:14;;;;;;;;;;;28.30;76.80;;;;;;4969534;28;19969;-76
2022/07/23 05:39:40;;;;;;;;;;;28.50;76.30;;;;;;4978706;28;19914;-76
2022/07/23 05:42:07;;;;;;;;;;;28.70;76.70;;;;;;4972959;28;20432;-77
2022/07/23 05:44:34;;;;;;;;;;;28.90;76.50;;;;;;4976303;28;19932;-77
2022/07/23 05:47:03;;;;;;;;;;;29.10;75.60;;;;;;4966565;28;20395;-77
2022/07/23 05:49:30;;;;;;;;;;;29.20;75.20;;;;;;4969336;28;19910;-77
2022/07/23 05:51:56;;;;;;;;;;;29.30;75.10;;;;;;4978304;28;19965;-77
2022/07/23 05:54:25;;;;;;;;;;;29.30;75.80;;;;;;4981473;28;19917;-78
2022/07/23 05:56:52;;;;;;;;;;;29.10;75.70;;;;;;4977357;28;19917;-77
2022/07/23 05:59:20;;;;;;;;;;;29.10;75.80;;;;;;4974185;28;19914;-77
2022/07/23 06:01:48;;;;;;;;;;;29.30;75.60;;;;;;4973105;28;19953;-78
2022/07/23 06:04:17;;;;;;;;;;;29.60;75.00;;;;;;4976999;28;20012;-76
2022/07/23 06:06:42;;;;;;;;;;;29.90;73.40;;;;;;4974300;28;19919;-77
2022/07/23 06:09:13;;;;;;;;;;;30.60;72.20;;;;;;4975999;28;19920;-75
2022/07/23 06:11:39;;;;;;;;;;;31.20;70.50;;;;;;4971334;28;19926;-75
2022/07/23 06:14:05;;;;;;;;;;;31.70;69.20;;;;;;4981047;28;19913;-75
2022/07/23 06:16:51;;;;;;;;;;;32.30;67.90;;;;;;4983303;28;19914;-75
2022/07/23 06:19:16;;;;;;;;;;;32.70;66.90;;;;;;4983681;28;19910;-78
2022/07/23 06:21:43;;;;;;;;;;;33.10;65.70;;;;;;4972113;28;19910;-76
2022/07/23 06:24:09;;;;;;;;;;;33.70;64.30;;;;;;4971211;28;19921;-76
2022/07/23 06:26:38;;;;;;;;;;;34.10;63.50;;;;;;4970872;28;19910;-75
2022/07/23 06:29:05;;;;;;;;;;;34.40;62.90;;;;;;4975534;28;19917;-75
2022/07/23 06:31:38;;;;;;;;;;;34.50;61.60;;;;;;4975849;28;19910;-77
2022/07/23 06:34:04;;;;;;;;;;;34.40;61.40;;;;;;4978436;28;20264;-75
2022/07/23 06:36:29;;;;;;;;;;;34.60;60.80;;;;;;4987456;28;19917;-76
2022/07/23 06:38:58;;;;;;;;;;;34.80;60.20;;;;;;4968315;28;19914;-76
2022/07/23 06:41:26;;;;;;;;;;;35.00;59.90;;;;;;4966199;28;19922;-75
2022/07/23 06:43:54;;;;;;;;;;;35.40;58.80;;;;;;4990051;28;19918;-75
2022/07/23 06:46:20;;;;;;;;;;;35.70;57.90;;;;;;4969823;28;20559;-75
2022/07/23 06:48:49;;;;;;;;;;;36.00;57.40;;;;;;4965243;28;19917;-76
2022/07/23 06:51:17;;;;;;;;;;;36.30;56.70;;;;;;4966042;28;19910;-76
2022/07/23 06:53:43;;;;;;;;;;;36.60;55.60;;;;;;4974729;28;19918;-75
2022/07/23 06:56:23;;;;;;;;;;;36.70;55.40;;;;;;4972677;28;19917;-75
2022/07/23 06:58:48;;;;;;;;;;;36.80;55.20;;;;;;4967201;28;19906;-76
2022/07/23 07:01:21;;;;;;;;;;;36.40;55.10;;;;;;4973743;28;20335;-75
2022/07/23 07:03:54;;;;;;;;;;;36.40;55.20;;;;;;4974547;28;19914;-76
2022/07/23 07:06:21;;;;;;;;;;;36.50;54.80;;;;;;4977015;28;19910;-76
2022/07/23 07:08:47;;;;;;;;;;;36.70;54.10;;;;;;4974799;28;19993;-76
2022/07/23 07:11:12;;;;;;;;;;;37.00;52.90;;;;;;4970861;28;19918;-76
2022/07/23 07:13:38;;;;;;;;;;;37.20;52.60;;;;;;4968290;28;19918;-76
2022/07/23 07:16:04;;;;;;;;;;;37.70;52.20;;;;;;4968774;28;19910;-75
2022/07/23 07:18:31;;;;;;;;;;;37.80;51.50;;;;;;4970858;28;19921;-75
2022/07/23 07:20:57;;;;;;;;;;;37.80;51.20;;;;;;4967791;28;19911;-76
2022/07/23 07:23:30;;;;;;;;;;;37.70;51.40;;;;;;4971073;28;19910;-76
2022/07/23 07:25:56;;;;;;;;;;;37.80;51.00;;;;;;4970027;28;19910;-78
2022/07/23 07:28:26;;;;;;;;;;;38.00;50.80;;;;;;4971209;28;19917;-78
2022/07/23 07:30:54;;;;;;;;;;;38.10;50.70;;;;;;4964836;28;19922;-77
2022/07/23 07:33:27;;;;;;;;;;;38.30;50.50;;;;;;4970960;28;19910;-77
2022/07/23 07:35:56;;;;;;;;;;;38.40;50.20;;;;;;4994102;28;19960;-77
2022/07/23 07:38:21;;;;;;;;;;;38.30;49.80;;;;;;4976421;28;20025;-77
2022/07/23 07:40:47;;;;;;;;;;;38.50;49.70;;;;;;4967159;28;20001;-77
2022/07/23 07:43:25;;;;;;;;;;;38.80;49.40;;;;;;4967272;28;19972;-79
2022/07/23 07:45:50;;;;;;;;;;;39.10;49.00;;;;;;4972187;28;19968;-79
2022/07/23 07:48:17;;;;;;;;;;;39.00;48.60;;;;;;4990289;28;19950;-78
2022/07/23 07:50:45;;;;;;;;;;;39.10;48.60;;;;;;4962444;28;19910;-78
2022/07/23 07:53:17;;;;;;;;;;;39.40;48.20;;;;;;4975056;28;19918;-76
2022/07/23 07:55:46;;;;;;;;;;;39.80;47.70;;;;;;4971291;28;20494;-76
2022/07/23 07:58:13;;;;;;;;;;;40.30;47.20;;;;;;4970559;28;19924;-76
2022/07/23 08:00:46;;;;;;;;;;;40.20;47.20;;;;;;4974905;28;19918;-77
2022/07/23 08:03:13;;;;;;;;;;;40.50;47.20;;;;;;4972169;28;19917;-77
2022/07/23 08:05:39;;;;;;;;;;;41.00;46.60;;;;;;4979292;28;20423;-77
2022/07/23 08:08:04;;;;;;;;;;;41.30;46.00;;;;;;4975273;28;20048;-77
2022/07/23 08:10:32;;;;;;;;;;;40.50;46.30;;;;;;4968868;28;19910;-76
2022/07/23 08:13:00;;;;;;;;;;;39.60;47.00;;;;;;4975052;28;19997;-77
2022/07/23 08:15:28;;;;;;;;;;;38.60;48.10;;;;;;4983406;28;19960;-76
2022/07/23 08:17:54;;;;;;;;;;;37.80;48.90;;;;;;4975568;28;19909;-76
2022/07/23 08:20:26;;;;;;;;;;;37.20;49.40;;;;;;4979614;28;19910;-77
2022/07/23 08:22:55;;;;;;;;;;;36.20;50.50;;;;;;4993763;28;19949;-77
2022/07/23 08:25:27;;;;;;;;;;;35.70;50.90;;;;;;4978893;28;19918;-76
2022/07/23 08:27:53;;;;;;;;;;;36.00;51.20;;;;;;4979859;28;19952;-76
2022/07/23 08:30:25;;;;;;;;;;;35.90;51.10;;;;;;4971794;28;19961;-76
2022/07/23 08:33:18;;;;;;;;;;;36.10;50.90;;;;;;4972748;28;20046;-76
2022/07/23 08:35:47;;;;;;;;;;;36.10;51.00;;;;;;4977639;28;19917;-77
2022/07/23 08:38:17;;;;;;;;;;;36.90;50.80;;;;;;4984842;28;19953;-76
2022/07/23 08:40:48;;;;;;;;;;;37.40;49.70;;;;;;4978131;28;20256;-76
2022/07/23 08:43:15;;;;;;;;;;;37.90;49.20;;;;;;4972618;28;19915;-75
2022/07/23 08:45:43;;;;;;;;;;;38.80;48.40;;;;;;4976358;28;19953;-76
2022/07/23 08:48:14;;;;;;;;;;;39.40;47.40;;;;;;4978532;28;19950;-76
2022/07/23 08:50:43;;;;;;;;;;;39.90;46.60;;;;;;4974333;28;19938;-75
2022/07/23 08:53:10;;;;;;;;;;;40.50;46.20;;;;;;4979997;28;20371;-75
2022/07/23 08:55:35;;;;;;;;;;;41.00;45.90;;;;;;4975267;28;20149;-76
2022/07/23 08:58:02;;;;;;;;;;;41.50;45.20;;;;;;4974153;28;20377;-76
2022/07/23 09:00:29;;;;;;;;;;;41.80;44.90;;;;;;4975175;28;19910;-77
2022/07/23 09:02:55;;;;;;;;;;;41.60;45.00;;;;;;4964860;28;20268;-77
2022/07/23 09:05:21;;;;;;;;;;;41.40;44.50;;;;;;4970039;28;21416;-77
2022/07/23 09:08:07;;;;;;;;;;;40.40;44.90;;;;;;4974821;28;19913;-77
2022/07/23 09:10:54;;;;;;;;;;;39.60;46.00;;;;;;4969385;28;19910;-78
2022/07/23 09:13:32;;;;;;;;;;;39.50;46.60;;;;;;4979471;28;19916;-77
2022/07/23 09:16:03;;;;;;;;;;;39.90;46.10;;;;;;4979601;28;19921;-75
2022/07/23 09:18:38;;;;;;;;;;;40.60;46.10;;;;;;4969484;28;19914;-75
2022/07/23 09:21:11;;;;;;;;;;;41.30;45.60;;;;;;4976345;28;19917;-75
2022/07/23 09:24:15;;;;;;;;;;;42.40;44.20;;;;;;4973729;28;19910;-76
2022/07/23 09:26:44;;;;;;;;;;;42.90;43.70;;;;;;4937893;29;19925;-76
2022/07/23 09:29:11;;;;;;;;;;;43.30;43.00;;;;;;4963943;28;19914;-75
2022/07/23 09:31:43;;;;;;;;;;;42.90;43.30;;;;;;4971376;28;19985;-75
2022/07/23 09:34:10;;;;;;;;;;;42.30;43.80;;;;;;4980824;28;20290;-75
2022/07/23 09:36:40;;;;;;;;;;;41.70;44.20;;;;;;4987547;28;19980;-75
2022/07/23 09:39:07;;;;;;;;;;;41.30;44.60;;;;;;4972094;28;19910;-77
2022/07/23 09:41:34;;;;;;;;;;;40.60;45.30;;;;;;4972177;28;19918;-77
2022/07/23 09:44:09;;;;;;;;;;;40.60;45.40;;;;;;4967224;28;20149;-78
2022/07/23 09:46:36;;;;;;;;;;;40.30;45.70;;;;;;4973809;28;19996;-77
2022/07/23 09:49:10;;;;;;;;;;;40.50;45.30;;;;;;4974634;28;19914;-77
2022/07/23 09:51:46;;;;;;;;;;;40.70;45.10;;;;;;4968538;28;19909;-77
2022/07/23 09:54:26;;;;;;;;;;;41.20;45.00;;;;;;4971877;28;19921;-77
2022/07/23 09:56:53;;;;;;;;;;;42.10;44.30;;;;;;4972168;28;19918;-77
2022/07/23 09:59:30;;;;;;;;;;;42.60;44.00;;;;;;4970851;28;19917;-77
2022/07/23 10:01:59;;;;;;;;;;;43.00;43.20;;;;;;4977064;28;19913;-77
2022/07/23 10:04:27;;;;;;;;;;;43.10;43.10;;;;;;4987594;28;19910;-78
2022/07/23 10:06:55;;;;;;;;;;;43.20;43.00;;;;;;4963843;28;19910;-77
2022/07/23 10:09:26;;;;;;;;;;;43.60;42.80;;;;;;4970742;28;19972;-77
2022/07/23 10:11:55;;;;;;;;;;;43.60;42.60;;;;;;4967035;28;19925;-77
2022/07/23 10:14:22;;;;;;;;;;;43.70;42.40;;;;;;4968906;28;19922;-77
2022/07/23 10:16:47;;;;;;;;;;;43.70;43.00;;;;;;4970393;28;19916;-77
2022/07/23 10:19:18;;;;;;;;;;;44.00;42.30;;;;;;4967614;28;19910;-77
2022/07/23 10:21:48;;;;;;;;;;;44.00;42.20;;;;;;4969532;28;19925;-77
2022/07/23 10:24:18;;;;;;;;;;;44.00;42.30;;;;;;4968241;28;20009;-77
2022/07/23 10:26:54;;;;;;;;;;;44.10;42.50;;;;;;4972919;28;19971;-76
2022/07/23 10:29:45;;;;;;;;;;;44.40;42.00;;;;;;4968635;28;20310;-75
2022/07/23 10:32:27;;;;;;;;;;;44.20;42.00;;;;;;4967470;28;19925;-75
2022/07/23 10:35:14;;;;;;;;;;;43.80;42.20;;;;;;4958931;28;19922;-75
2022/07/23 10:37:43;;;;;;;;;;;43.20;42.80;;;;;;4984755;28;20377;-75
2022/07/23 10:40:09;;;;;;;;;;;42.60;43.10;;;;;;4966826;28;19914;-75
2022/07/23 10:42:36;;;;;;;;;;;42.70;43.30;;;;;;4987005;28;19917;-76
2022/07/23 10:45:22;;;;;;;;;;;42.70;42.80;;;;;;4964162;28;19914;-75
2022/07/23 10:47:50;;;;;;;;;;;42.60;43.20;;;;;;4974599;28;19953;-75
2022/07/23 10:50:24;;;;;;;;;;;42.30;43.60;;;;;;4990847;28;19910;-75
2022/07/23 10:55:48;;;;;;;;;;;41.20;44.20;;;;;;4972031;28;20003;-75
2022/07/23 10:58:21;;;;;;;;;;;40.00;45.20;;;;;;4967175;28;19996;-75
2022/07/23 11:00:48;;;;;;;;;;;39.30;46.10;;;;;;4971110;28;20228;-75
2022/07/23 11:03:36;;;;;;;;;;;38.90;46.30;;;;;;4970129;28;20386;-75
2022/07/23 11:06:04;;;;;;;;;;;38.70;46.90;;;;;;4968200;28;19921;-75
2022/07/23 11:08:44;;;;;;;;;;;38.60;47.30;;;;;;4968182;28;19917;-75
2022/07/23 11:11:18;;;;;;;;;;;38.00;47.90;;;;;;4969941;28;19925;-75
2022/07/23 11:13:47;;;;;;;;;;;37.90;48.30;;;;;;4965446;28;19914;-75
2022/07/23 11:16:20;;;;;;;;;;;38.20;48.40;;;;;;4967465;28;19917;-75
2022/07/23 11:18:50;;;;;;;;;;;38.10;48.50;;;;;;4968099;28;20748;-76
2022/07/23 11:21:26;;;;;;;;;;;38.10;48.40;;;;;;4961727;28;20156;-75
2022/07/23 11:24:06;;;;;;;;;;;37.80;48.50;;;;;;4971865;28;20629;-75
2022/07/23 11:26:56;;;;;;;;;;;37.50;48.90;;;;;;4968611;28;19921;-75
2022/07/23 11:29:33;;;;;;;;;;;37.20;49.50;;;;;;4969828;28;19924;-75
2022/07/23 11:32:09;;;;;;;;;;;37.10;49.50;;;;;;4972987;28;19914;-75
2022/07/23 11:34:39;;;;;;;;;;;36.90;50.10;;;;;;4963911;28;19921;-75
2022/07/23 11:37:10;;;;;;;;;;;37.00;49.70;;;;;;4977555;28;19997;-75
2022/07/23 11:39:37;;;;;;;;;;;37.30;49.70;;;;;;4963596;28;19920;-76
2022/07/23 11:42:07;;;;;;;;;;;37.20;49.80;;;;;;4970610;28;19925;-75
2022/07/23 11:44:35;;;;;;;;;;;37.30;50.10;;;;;;4964707;28;20001;-75
2022/07/23 11:47:08;;;;;;;;;;;37.30;50.00;;;;;;4968095;28;19910;-75
2022/07/23 11:49:35;;;;;;;;;;;37.30;50.00;;;;;;4984598;28;20616;-75
2022/07/23 11:52:04;;;;;;;;;;;37.10;50.20;;;;;;4966628;28;19911;-75
2022/07/23 11:54:32;;;;;;;;;;;36.90;50.40;;;;;;4973140;28;20441;-75
2022/07/23 11:56:58;;;;;;;;;;;36.90;51.10;;;;;;4979340;28;20612;-75
2022/07/23 11:59:26;;;;;;;;;;;37.10;50.30;;;;;;4967361;28;19984;-74
2022/07/23 12:01:59;;;;;;;;;;;37.20;50.40;;;;;;4965727;28;20008;-75
2022/07/23 12:04:36;;;;;;;;;;;36.90;50.20;;;;;;4994180;28;19918;-74
2022/07/23 12:07:02;;;;;;;;;;;36.90;50.50;;;;;;4970165;28;19914;-74
2022/07/23 12:09:28;;;;;;;;;;;37.10;50.10;;;;;;4983843;28;20374;-74
2022/07/23 12:12:01;;;;;;;;;;;37.10;50.10;;;;;;4966731;28;19914;-74
2022/07/23 12:14:29;;;;;;;;;;;36.80;49.80;;;;;;4968853;28;19922;-74
2022/07/23 12:17:10;;;;;;;;;;;36.40;50.10;;;;;;4971055;28;19910;-74
2022/07/23 12:19:36;;;;;;;;;;;36.20;50.30;;;;;;4967171;28;20332;-74
2022/07/23 12:22:03;;;;;;;;;;;36.20;50.60;;;;;;4969934;28;19993;-74
2022/07/23 12:24:29;;;;;;;;;;;36.00;50.70;;;;;;4967676;28;19914;-74
2022/07/23 12:27:11;;;;;;;;;;;35.80;51.00;;;;;;4973815;28;19910;-74
2022/07/23 12:29:40;;;;;;;;;;;35.60;51.10;;;;;;4976396;28;19910;-74
2022/07/23 12:32:26;;;;;;;;;;;35.40;51.10;;;;;;4972379;28;19910;-74
2022/07/23 12:35:04;;;;;;;;;;;35.10;51.60;;;;;;4976004;28;19922;-74
2022/07/23 12:37:31;;;;;;;;;;;34.90;51.70;;;;;;4972027;28;19914;-73
2022/07/23 12:39:56;;;;;;;;;;;34.70;52.00;;;;;;4974473;28;19953;-74
2022/07/23 12:42:24;;;;;;;;;;;34.40;52.30;;;;;;4974412;28;19986;-73
2022/07/23 12:45:06;;;;;;;;;;;34.20;52.80;;;;;;4965184;28;19918;-73
2022/07/23 12:47:55;;;;;;;;;;;34.00;52.80;;;;;;4967431;28;19914;-74
2022/07/23 12:50:50;;;;;;;;;;;33.90;52.60;;;;;;4993891;28;19917;-74
2022/07/23 12:53:42;;;;;;;;;;;33.60;52.60;;;;;;4954260;28;19956;-74
2022/07/23 12:56:19;;;;;;;;;;;33.30;53.20;;;;;;4969498;28;19965;-74
2022/07/23 12:58:47;;;;;;;;;;;33.30;53.40;;;;;;4968622;28;19981;-74
2022/07/23 13:01:22;;;;;;;;;;;33.20;52.50;;;;;;4974777;28;19914;-74
2022/07/23 13:04:07;;;;;;;;;;;33.10;51.90;;;;;;4975898;28;19914;-73
2022/07/23 13:06:36;;;;;;;;;;;33.00;50.80;;;;;;4970456;28;19949;-74
2022/07/23 13:09:15;;;;;;;;;;;32.80;50.60;;;;;;4974138;28;19914;-74
2022/07/23 13:11:43;;;;;;;;;;;32.90;50.20;;;;;;4967934;28;19918;-74
2022/07/23 13:14:09;;;;;;;;;;;33.00;50.10;;;;;;4988227;28;20590;-76
2022/07/23 13:16:34;;;;;;;;;;;32.90;49.90;;;;;;4975257;28;19961;-74
2022/07/23 13:19:00;;;;;;;;;;;32.80;49.90;;;;;;4967962;28;19910;-74
2022/07/23 13:21:28;;;;;;;;;;;32.80;50.10;;;;;;4973461;28;19961;-75
2022/07/23 13:23:55;;;;;;;;;;;33.00;50.20;;;;;;4973080;28;20023;-75
2022/07/23 13:26:21;;;;;;;;;;;33.10;49.90;;;;;;4974151;28;19922;-74
2022/07/23 13:28:46;;;;;;;;;;;33.20;50.00;;;;;;4968259;28;19988;-74
2022/07/23 13:31:14;;;;;;;;;;;33.40;49.80;;;;;;4971280;28;20008;-74
2022/07/23 13:33:39;;;;;;;;;;;33.40;49.10;;;;;;4963527;28;19914;-74
2022/07/23 13:36:05;;;;;;;;;;;33.50;49.60;;;;;;4969161;28;19925;-73
2022/07/23 13:38:33;;;;;;;;;;;33.60;49.30;;;;;;4966147;28;19989;-74
2022/07/23 13:40:58;;;;;;;;;;;33.40;49.10;;;;;;4981883;28;19980;-74
2022/07/23 13:43:24;;;;;;;;;;;33.30;49.40;;;;;;4975136;28;19914;-74
2022/07/23 13:45:51;;;;;;;;;;;33.30;49.60;;;;;;4966111;28;20388;-74
2022/07/23 13:48:21;;;;;;;;;;;33.10;49.50;;;;;;4995730;28;19914;-74
2022/07/23 13:50:47;;;;;;;;;;;33.10;49.80;;;;;;4974610;28;20820;-74
2022/07/23 13:53:21;;;;;;;;;;;33.10;49.70;;;;;;4970884;28;19914;-74
2022/07/23 13:55:47;;;;;;;;;;;33.10;49.70;;;;;;4965269;28;19925;-74
2022/07/23 13:58:14;;;;;;;;;;;33.10;49.90;;;;;;4971832;28;19956;-74
2022/07/23 14:00:42;;;;;;;;;;;33.30;49.80;;;;;;4983208;28;19952;-75
2022/07/23 14:03:10;;;;;;;;;;;33.40;49.50;;;;;;4971638;28;19910;-74
2022/07/23 14:05:35;;;;;;;;;;;33.50;49.30;;;;;;4968070;28;19917;-74
2022/07/23 14:08:02;;;;;;;;;;;33.40;48.60;;;;;;4970581;28;19910;-75
2022/07/23 14:10:28;;;;;;;;;;;33.30;48.90;;;;;;4968417;28;19996;-74
2022/07/23 14:12:57;;;;;;;;;;;33.30;48.40;;;;;;4965042;28;20029;-74
2022/07/23 14:15:26;;;;;;;;;;;33.30;48.30;;;;;;4969678;28;20331;-74
2022/07/23 14:17:53;;;;;;;;;;;33.30;47.90;;;;;;4978280;28;19964;-75
2022/07/23 14:20:23;;;;;;;;;;;33.20;47.60;;;;;;4982634;28;19917;-74
2022/07/23 14:22:49;;;;;;;;;;;33.10;46.10;;;;;;4971782;28;19910;-74
2022/07/23 14:25:15;;;;;;;;;;;33.00;46.30;;;;;;4969382;28;19960;-74
2022/07/23 14:27:44;;;;;;;;;;;33.00;46.60;;;;;;4981433;28;20619;-74
2022/07/23 14:30:10;;;;;;;;;;;33.00;46.90;;;;;;4988798;28;19918;-74
2022/07/23 14:32:46;;;;;;;;;;;32.90;47.00;;;;;;4963222;28;19989;-74
2022/07/23 14:35:14;;;;;;;;;;;33.10;47.10;;;;;;4977046;28;19921;-74
2022/07/23 14:37:40;;;;;;;;;;;33.10;47.20;;;;;;4969068;28;20005;-75
2022/07/23 14:40:07;;;;;;;;;;;33.30;47.80;;;;;;4969282;28;20000;-74
2022/07/23 14:42:35;;;;;;;;;;;33.40;47.30;;;;;;4965709;28;19918;-74
2022/07/23 14:45:04;;;;;;;;;;;33.50;47.10;;;;;;4971744;28;19914;-75
2022/07/23 14:47:29;;;;;;;;;;;33.50;47.30;;;;;;4969091;28;19918;-74
2022/07/23 14:49:57;;;;;;;;;;;33.60;47.20;;;;;;4970759;28;20282;-74
2022/07/23 14:52:26;;;;;;;;;;;33.70;47.00;;;;;;4965265;28;19924;-74
2022/07/23 14:54:53;;;;;;;;;;;33.80;47.20;;;;;;4967147;28;19925;-74
2022/07/23 14:57:21;;;;;;;;;;;33.70;47.20;;;;;;4977654;28;20000;-74
2022/07/23 14:59:46;;;;;;;;;;;33.60;47.40;;;;;;4971740;28;19948;-74
2022/07/23 15:02:16;;;;;;;;;;;33.60;47.60;;;;;;4967228;28;19953;-74
2022/07/23 15:04:41;;;;;;;;;;;33.60;48.20;;;;;;4969672;28;19913;-74
2022/07/23 15:07:07;;;;;;;;;;;33.40;48.90;;;;;;4970486;28;20441;-74
2022/07/23 15:09:34;;;;;;;;;;;33.30;48.80;;;;;;4967398;28;19960;-74
2022/07/23 15:11:59;;;;;;;;;;;33.30;49.50;;;;;;4991605;28;19914;-74
2022/07/23 15:14:25;;;;;;;;;;;33.20;49.80;;;;;;4964054;28;19914;-75
2022/07/23 15:16:54;;;;;;;;;;;33.30;50.30;;;;;;4968034;28;19918;-74
2022/07/23 15:19:20;;;;;;;;;;;33.20;50.30;;;;;;4967962;28;19996;-74
2022/07/23 15:21:45;;;;;;;;;;;33.20;50.10;;;;;;4962505;28;20056;-74
2022/07/23 15:24:13;;;;;;;;;;;33.10;50.30;;;;;;4987963;28;20002;-74
2022/07/23 15:26:41;;;;;;;;;;;33.10;50.70;;;;;;4972170;28;19921;-75
2022/07/23 15:29:06;;;;;;;;;;;33.10;50.70;;;;;;4973273;28;19977;-74
2022/07/23 15:31:39;;;;;;;;;;;33.00;50.60;;;;;;4966134;28;19915;-73
2022/07/23 15:34:08;;;;;;;;;;;33.00;50.90;;;;;;4993196;28;20001;-74
2022/07/23 15:36:34;;;;;;;;;;;32.90;51.30;;;;;;4966566;28;20004;-75
2022/07/23 15:39:02;;;;;;;;;;;32.90;51.30;;;;;;4969137;28;19964;-74
2022/07/23 15:41:27;;;;;;;;;;;32.80;51.50;;;;;;4971675;28;19944;-73
2022/07/23 15:43:56;;;;;;;;;;;32.80;51.50;;;;;;4965624;28;19918;-74
2022/07/23 15:46:21;;;;;;;;;;;32.70;52.00;;;;;;4967696;28;20313;-73
2022/07/23 15:48:50;;;;;;;;;;;32.70;51.70;;;;;;4965915;28;20390;-73
2022/07/23 15:51:16;;;;;;;;;;;32.70;51.70;;;;;;4966722;28;20034;-73
2022/07/23 15:53:42;;;;;;;;;;;32.60;51.60;;;;;;4969158;28;21417;-74
2022/07/23 15:56:10;;;;;;;;;;;32.50;51.80;;;;;;4964750;28;19918;-74
2022/07/23 15:58:43;;;;;;;;;;;32.40;52.20;;;;;;4967244;28;19910;-73
2022/07/23 16:01:08;;;;;;;;;;;32.40;52.20;;;;;;4980167;28;19909;-74
2022/07/23 16:03:35;;;;;;;;;;;32.40;52.40;;;;;;4974852;28;19917;-73
2022/07/23 16:06:03;;;;;;;;;;;32.30;52.50;;;;;;4964882;28;20267;-74
2022/07/23 16:08:30;;;;;;;;;;;32.30;52.60;;;;;;4967883;28;19910;-74
2022/07/23 16:10:59;;;;;;;;;;;32.30;52.80;;;;;;4964789;28;19961;-74
2022/07/23 16:13:30;;;;;;;;;;;32.20;53.00;;;;;;4964778;28;19914;-74
2022/07/23 16:15:58;;;;;;;;;;;32.20;53.20;;;;;;4976056;28;19953;-74